sensor_id;sensor_type;location;lat;lon;timestamp;P1;durP1;ratioP1;P2;durP2;ratioP2
37851;SDS011;23691;52.486;4.650;2022-07-15T00:01:31;8.20;;;1.08;;
37851;SDS011;23691;52.486;4.650;2022-07-15T00:03:59;10.10;;;1.33;;
37851;SDS011;23691;52.486;4.650;2022-07-15T00:06:25;7.55;;;1.42;;
37851;SDS011;23691;52.486;4.650;2022-07-15T00:08:50;10.70;;;1.40;;
37851;SDS011;23691;52.486;4.650;2022-07-15T00:11:16;9.30;;;1.17;;
37851;SDS011;23691;52.486;4.650;2022-07-15T00:13:42;8.20;;;1.08;;
37851;SDS011;23691;52.486;4.650;2022-07-15T00:16:07;9.20;;;1.40;;
37851;SDS011;23691;52.486;4.650;2022-07-15T00:18:32;7.82;;;1.10;;
37851;SDS011;23691;52.486;4.650;2022-07-15T00:20:58;9.07;;;1.75;;
37851;SDS011;23691;52.486;4.650;2022-07-15T00:23:23;9.80;;;1.27;;
37851;SDS011;23691;52.486;4.650;2022-07-15T00:25:49;11.18;;;1.40;;
37851;SDS011;23691;52.486;4.650;2022-07-15T00:28:14;10.35;;;1.50;;
37851;SDS011;23691;52.486;4.650;2022-07-15T00:30:41;8.27;;;1.00;;
37851;SDS011;23691;52.486;4.650;2022-07-15T00:33:07;10.75;;;1.48;;
37851;SDS011;23691;52.486;4.650;2022-07-15T00:35:34;11.25;;;1.30;;
37851;SDS011;23691;52.486;4.650;2022-07-15T00:38:01;9.25;;;0.90;;
37851;SDS011;23691;52.486;4.650;2022-07-15T00:40:28;12.68;;;1.55;;
37851;SDS011;23691;52.486;4.650;2022-07-15T00:42:54;12.38;;;1.25;;
37851;SDS011;23691;52.486;4.650;2022-07-15T00:45:21;10.48;;;1.08;;
37851;SDS011;23691;52.486;4.650;2022-07-15T00:47:48;10.38;;;1.33;;
37851;SDS011;23691;52.486;4.650;2022-07-15T00:50:17;7.28;;;0.90;;
37851;SDS011;23691;52.486;4.650;2022-07-15T00:52:45;7.28;;;1.10;;
37851;SDS011;23691;52.486;4.650;2022-07-15T00:55:14;10.45;;;1.40;;
37851;SDS011;23691;52.486;4.650;2022-07-15T00:57:43;9.30;;;1.50;;
37851;SDS011;23691;52.486;4.650;2022-07-15T01:00:10;8.48;;;1.30;;
37851;SDS011;23691;52.486;4.650;2022-07-15T01:02:37;9.67;;;1.30;;
37851;SDS011;23691;52.486;4.650;2022-07-15T01:05:04;7.80;;;1.20;;
37851;SDS011;23691;52.486;4.650;2022-07-15T01:07:32;9.13;;;1.20;;
37851;SDS011;23691;52.486;4.650;2022-07-15T01:09:57;11.95;;;1.20;;
37851;SDS011;23691;52.486;4.650;2022-07-15T01:12:23;6.57;;;1.00;;
37851;SDS011;23691;52.486;4.650;2022-07-15T01:14:50;8.30;;;1.05;;
37851;SDS011;23691;52.486;4.650;2022-07-15T01:17:15;5.95;;;0.95;;
37851;SDS011;23691;52.486;4.650;2022-07-15T01:19:41;9.68;;;1.10;;
37851;SDS011;23691;52.486;4.650;2022-07-15T01:22:07;12.57;;;1.00;;
37851;SDS011;23691;52.486;4.650;2022-07-15T01:24:32;10.10;;;0.95;;
37851;SDS011;23691;52.486;4.650;2022-07-15T01:26:59;11.00;;;1.10;;
37851;SDS011;23691;52.486;4.650;2022-07-15T01:29:25;6.22;;;0.93;;
37851;SDS011;23691;52.486;4.650;2022-07-15T01:31:51;8.32;;;1.10;;
37851;SDS011;23691;52.486;4.650;2022-07-15T01:34:16;9.30;;;1.23;;
37851;SDS011;23691;52.486;4.650;2022-07-15T01:36:42;5.95;;;0.98;;
37851;SDS011;23691;52.486;4.650;2022-07-15T01:39:07;10.30;;;1.02;;
37851;SDS011;23691;52.486;4.650;2022-07-15T01:41:33;7.68;;;0.90;;
37851;SDS011;23691;52.486;4.650;2022-07-15T01:43:58;7.20;;;1.08;;
37851;SDS011;23691;52.486;4.650;2022-07-15T01:46:24;9.10;;;1.13;;
37851;SDS011;23691;52.486;4.650;2022-07-15T01:48:49;10.25;;;1.02;;
37851;SDS011;23691;52.486;4.650;2022-07-15T01:51:33;7.20;;;1.23;;
37851;SDS011;23691;52.486;4.650;2022-07-15T01:53:58;7.70;;;1.10;;
37851;SDS011;23691;52.486;4.650;2022-07-15T01:56:24;9.45;;;1.30;;
37851;SDS011;23691;52.486;4.650;2022-07-15T01:58:49;10.20;;;1.10;;
37851;SDS011;23691;52.486;4.650;2022-07-15T02:01:15;8.07;;;1.00;;
37851;SDS011;23691;52.486;4.650;2022-07-15T02:03:43;8.50;;;1.40;;
37851;SDS011;23691;52.486;4.650;2022-07-15T02:06:09;8.23;;;1.05;;
37851;SDS011;23691;52.486;4.650;2022-07-15T02:08:34;10.35;;;1.10;;
37851;SDS011;23691;52.486;4.650;2022-07-15T02:11:00;7.18;;;1.08;;
37851;SDS011;23691;52.486;4.650;2022-07-15T02:13:25;11.15;;;1.17;;
37851;SDS011;23691;52.486;4.650;2022-07-15T02:15:50;9.15;;;1.17;;
37851;SDS011;23691;52.486;4.650;2022-07-15T02:18:16;9.30;;;1.00;;
37851;SDS011;23691;52.486;4.650;2022-07-15T02:20:41;7.88;;;1.08;;
37851;SDS011;23691;52.486;4.650;2022-07-15T02:23:07;7.30;;;0.95;;
37851;SDS011;23691;52.486;4.650;2022-07-15T02:25:33;7.55;;;0.90;;
37851;SDS011;23691;52.486;4.650;2022-07-15T02:28:00;7.32;;;1.10;;
37851;SDS011;23691;52.486;4.650;2022-07-15T02:30:32;8.52;;;1.20;;
37851;SDS011;23691;52.486;4.650;2022-07-15T02:33:01;10.65;;;1.10;;
37851;SDS011;23691;52.486;4.650;2022-07-15T02:35:27;9.65;;;1.17;;
37851;SDS011;23691;52.486;4.650;2022-07-15T02:37:53;9.15;;;1.17;;
37851;SDS011;23691;52.486;4.650;2022-07-15T02:40:19;9.38;;;1.15;;
37851;SDS011;23691;52.486;4.650;2022-07-15T02:42:51;10.10;;;1.52;;
37851;SDS011;23691;52.486;4.650;2022-07-15T02:45:22;12.70;;;1.10;;
37851;SDS011;23691;52.486;4.650;2022-07-15T02:47:49;10.50;;;1.02;;
37851;SDS011;23691;52.486;4.650;2022-07-15T02:50:15;5.43;;;0.82;;
37851;SDS011;23691;52.486;4.650;2022-07-15T02:52:41;7.80;;;1.00;;
37851;SDS011;23691;52.486;4.650;2022-07-15T02:55:07;8.95;;;1.00;;
37851;SDS011;23691;52.486;4.650;2022-07-15T02:57:33;8.15;;;1.00;;
37851;SDS011;23691;52.486;4.650;2022-07-15T02:59:59;12.10;;;1.20;;
37851;SDS011;23691;52.486;4.650;2022-07-15T03:02:24;7.80;;;0.93;;
37851;SDS011;23691;52.486;4.650;2022-07-15T03:04:50;10.85;;;1.00;;
37851;SDS011;23691;52.486;4.650;2022-07-15T03:07:16;9.38;;;1.17;;
37851;SDS011;23691;52.486;4.650;2022-07-15T03:09:41;10.50;;;1.20;;
37851;SDS011;23691;52.486;4.650;2022-07-15T03:12:06;7.18;;;0.82;;
37851;SDS011;23691;52.486;4.650;2022-07-15T03:14:32;7.18;;;1.05;;
37851;SDS011;23691;52.486;4.650;2022-07-15T03:16:57;9.45;;;1.10;;
37851;SDS011;23691;52.486;4.650;2022-07-15T03:19:23;10.27;;;1.27;;
37851;SDS011;23691;52.486;4.650;2022-07-15T03:21:49;11.20;;;1.10;;
37851;SDS011;23691;52.486;4.650;2022-07-15T03:24:15;9.90;;;1.58;;
37851;SDS011;23691;52.486;4.650;2022-07-15T03:26:41;8.63;;;1.30;;
37851;SDS011;23691;52.486;4.650;2022-07-15T03:29:06;10.73;;;1.10;;
37851;SDS011;23691;52.486;4.650;2022-07-15T03:31:32;9.75;;;1.10;;
37851;SDS011;23691;52.486;4.650;2022-07-15T03:33:57;10.13;;;1.00;;
37851;SDS011;23691;52.486;4.650;2022-07-15T03:36:23;9.23;;;1.20;;
37851;SDS011;23691;52.486;4.650;2022-07-15T03:38:49;10.45;;;1.10;;
37851;SDS011;23691;52.486;4.650;2022-07-15T03:41:19;7.10;;;1.02;;
37851;SDS011;23691;52.486;4.650;2022-07-15T03:43:45;8.45;;;1.40;;
37851;SDS011;23691;52.486;4.650;2022-07-15T03:46:11;10.18;;;1.50;;
37851;SDS011;23691;52.486;4.650;2022-07-15T03:48:37;8.73;;;1.20;;
37851;SDS011;23691;52.486;4.650;2022-07-15T03:51:02;9.55;;;1.20;;
37851;SDS011;23691;52.486;4.650;2022-07-15T03:53:29;10.65;;;1.05;;
37851;SDS011;23691;52.486;4.650;2022-07-15T03:55:55;7.80;;;1.13;;
37851;SDS011;23691;52.486;4.650;2022-07-15T03:58:20;9.18;;;1.20;;
37851;SDS011;23691;52.486;4.650;2022-07-15T04:00:46;8.13;;;1.20;;
37851;SDS011;23691;52.486;4.650;2022-07-15T04:03:11;8.98;;;1.10;;
37851;SDS011;23691;52.486;4.650;2022-07-15T04:05:37;11.40;;;1.60;;
37851;SDS011;23691;52.486;4.650;2022-07-15T04:08:03;8.45;;;1.20;;
37851;SDS011;23691;52.486;4.650;2022-07-15T04:10:29;8.70;;;1.20;;
37851;SDS011;23691;52.486;4.650;2022-07-15T04:12:56;9.55;;;1.20;;
37851;SDS011;23691;52.486;4.650;2022-07-15T04:15:21;7.50;;;1.20;;
37851;SDS011;23691;52.486;4.650;2022-07-15T04:17:47;9.63;;;1.25;;
37851;SDS011;23691;52.486;4.650;2022-07-15T04:20:12;7.63;;;1.27;;
37851;SDS011;23691;52.486;4.650;2022-07-15T04:22:41;9.00;;;1.35;;
37851;SDS011;23691;52.486;4.650;2022-07-15T04:25:08;8.73;;;1.20;;
37851;SDS011;23691;52.486;4.650;2022-07-15T04:27:36;9.95;;;1.38;;
37851;SDS011;23691;52.486;4.650;2022-07-15T04:30:03;12.18;;;1.42;;
37851;SDS011;23691;52.486;4.650;2022-07-15T04:32:30;8.35;;;1.10;;
37851;SDS011;23691;52.486;4.650;2022-07-15T04:34:56;12.40;;;1.38;;
37851;SDS011;23691;52.486;4.650;2022-07-15T04:37:21;7.78;;;1.00;;
37851;SDS011;23691;52.486;4.650;2022-07-15T04:39:47;11.77;;;1.55;;
37851;SDS011;23691;52.486;4.650;2022-07-15T04:42:13;15.15;;;1.40;;
37851;SDS011;23691;52.486;4.650;2022-07-15T04:44:38;10.75;;;1.38;;
37851;SDS011;23691;52.486;4.650;2022-07-15T04:47:03;9.38;;;1.30;;
37851;SDS011;23691;52.486;4.650;2022-07-15T04:49:29;12.45;;;1.60;;
37851;SDS011;23691;52.486;4.650;2022-07-15T04:52:13;7.63;;;1.33;;
37851;SDS011;23691;52.486;4.650;2022-07-15T04:54:39;11.10;;;1.20;;
37851;SDS011;23691;52.486;4.650;2022-07-15T04:57:04;9.30;;;1.38;;
37851;SDS011;23691;52.486;4.650;2022-07-15T04:59:30;8.40;;;1.10;;
37851;SDS011;23691;52.486;4.650;2022-07-15T05:01:57;8.05;;;1.27;;
37851;SDS011;23691;52.486;4.650;2022-07-15T05:04:22;9.35;;;1.30;;
37851;SDS011;23691;52.486;4.650;2022-07-15T05:06:48;10.25;;;1.20;;
37851;SDS011;23691;52.486;4.650;2022-07-15T05:09:13;8.50;;;1.10;;
37851;SDS011;23691;52.486;4.650;2022-07-15T05:11:39;11.38;;;1.50;;
37851;SDS011;23691;52.486;4.650;2022-07-15T05:14:04;9.68;;;1.27;;
37851;SDS011;23691;52.486;4.650;2022-07-15T05:16:29;9.45;;;1.27;;
37851;SDS011;23691;52.486;4.650;2022-07-15T05:18:55;10.48;;;1.20;;
37851;SDS011;23691;52.486;4.650;2022-07-15T05:21:21;14.07;;;1.25;;
37851;SDS011;23691;52.486;4.650;2022-07-15T05:23:46;10.00;;;1.13;;
37851;SDS011;23691;52.486;4.650;2022-07-15T05:26:11;7.75;;;1.00;;
37851;SDS011;23691;52.486;4.650;2022-07-15T05:28:37;5.68;;;0.88;;
37851;SDS011;23691;52.486;4.650;2022-07-15T05:31:04;8.57;;;0.85;;
37851;SDS011;23691;52.486;4.650;2022-07-15T05:33:30;8.05;;;1.05;;
37851;SDS011;23691;52.486;4.650;2022-07-15T05:35:55;10.38;;;1.00;;
37851;SDS011;23691;52.486;4.650;2022-07-15T05:38:21;7.07;;;1.20;;
37851;SDS011;23691;52.486;4.650;2022-07-15T05:40:46;9.02;;;1.08;;
37851;SDS011;23691;52.486;4.650;2022-07-15T05:43:12;6.80;;;0.80;;
37851;SDS011;23691;52.486;4.650;2022-07-15T05:45:37;7.65;;;1.00;;
37851;SDS011;23691;52.486;4.650;2022-07-15T05:48:03;5.88;;;1.05;;
37851;SDS011;23691;52.486;4.650;2022-07-15T05:50:28;6.38;;;0.90;;
37851;SDS011;23691;52.486;4.650;2022-07-15T05:52:54;7.40;;;1.00;;
37851;SDS011;23691;52.486;4.650;2022-07-15T05:55:19;6.03;;;0.80;;
37851;SDS011;23691;52.486;4.650;2022-07-15T05:57:45;5.22;;;0.70;;
37851;SDS011;23691;52.486;4.650;2022-07-15T06:00:11;6.40;;;0.75;;
37851;SDS011;23691;52.486;4.650;2022-07-15T06:02:37;7.18;;;0.82;;
37851;SDS011;23691;52.486;4.650;2022-07-15T06:05:02;5.80;;;0.70;;
37851;SDS011;23691;52.486;4.650;2022-07-15T06:07:28;10.35;;;1.15;;
37851;SDS011;23691;52.486;4.650;2022-07-15T06:09:53;6.35;;;0.90;;
37851;SDS011;23691;52.486;4.650;2022-07-15T06:12:18;5.72;;;0.85;;
37851;SDS011;23691;52.486;4.650;2022-07-15T06:14:44;4.70;;;0.63;;
37851;SDS011;23691;52.486;4.650;2022-07-15T06:17:09;6.43;;;0.82;;
37851;SDS011;23691;52.486;4.650;2022-07-15T06:19:35;4.60;;;0.60;;
37851;SDS011;23691;52.486;4.650;2022-07-15T06:22:00;3.35;;;0.65;;
37851;SDS011;23691;52.486;4.650;2022-07-15T06:24:26;4.72;;;0.55;;
37851;SDS011;23691;52.486;4.650;2022-07-15T06:26:51;4.85;;;0.70;;
37851;SDS011;23691;52.486;4.650;2022-07-15T06:29:17;6.50;;;0.80;;
37851;SDS011;23691;52.486;4.650;2022-07-15T06:31:42;4.47;;;0.70;;
37851;SDS011;23691;52.486;4.650;2022-07-15T06:34:08;5.90;;;0.77;;
37851;SDS011;23691;52.486;4.650;2022-07-15T06:36:33;5.30;;;0.70;;
37851;SDS011;23691;52.486;4.650;2022-07-15T06:38:59;5.18;;;0.70;;
37851;SDS011;23691;52.486;4.650;2022-07-15T06:41:24;4.75;;;0.68;;
37851;SDS011;23691;52.486;4.650;2022-07-15T06:43:50;3.33;;;0.60;;
37851;SDS011;23691;52.486;4.650;2022-07-15T06:46:15;3.40;;;0.50;;
37851;SDS011;23691;52.486;4.650;2022-07-15T06:48:41;8.35;;;0.90;;
37851;SDS011;23691;52.486;4.650;2022-07-15T06:51:07;7.80;;;0.75;;
37851;SDS011;23691;52.486;4.650;2022-07-15T06:53:33;8.13;;;0.80;;
37851;SDS011;23691;52.486;4.650;2022-07-15T06:55:59;3.30;;;0.50;;
37851;SDS011;23691;52.486;4.650;2022-07-15T06:58:25;2.95;;;0.50;;
37851;SDS011;23691;52.486;4.650;2022-07-15T07:00:51;4.72;;;0.77;;
37851;SDS011;23691;52.486;4.650;2022-07-15T07:03:16;4.60;;;0.50;;
37851;SDS011;23691;52.486;4.650;2022-07-15T07:05:41;5.47;;;0.50;;
37851;SDS011;23691;52.486;4.650;2022-07-15T07:08:07;4.97;;;0.60;;
37851;SDS011;23691;52.486;4.650;2022-07-15T07:10:32;3.25;;;0.60;;
37851;SDS011;23691;52.486;4.650;2022-07-15T07:12:58;4.22;;;0.60;;
37851;SDS011;23691;52.486;4.650;2022-07-15T07:15:23;5.68;;;0.60;;
37851;SDS011;23691;52.486;4.650;2022-07-15T07:17:50;3.42;;;0.50;;
37851;SDS011;23691;52.486;4.650;2022-07-15T07:20:16;6.23;;;0.70;;
37851;SDS011;23691;52.486;4.650;2022-07-15T07:22:42;4.40;;;0.60;;
37851;SDS011;23691;52.486;4.650;2022-07-15T07:25:07;2.92;;;0.50;;
37851;SDS011;23691;52.486;4.650;2022-07-15T07:27:33;6.60;;;0.70;;
37851;SDS011;23691;52.486;4.650;2022-07-15T07:29:58;3.55;;;0.40;;
37851;SDS011;23691;52.486;4.650;2022-07-15T07:32:26;3.65;;;0.50;;
37851;SDS011;23691;52.486;4.650;2022-07-15T07:34:52;7.18;;;0.70;;
37851;SDS011;23691;52.486;4.650;2022-07-15T07:37:18;7.53;;;0.73;;
37851;SDS011;23691;52.486;4.650;2022-07-15T07:39:43;3.78;;;0.45;;
37851;SDS011;23691;52.486;4.650;2022-07-15T07:42:09;3.40;;;0.73;;
37851;SDS011;23691;52.486;4.650;2022-07-15T07:44:34;5.47;;;0.70;;
37851;SDS011;23691;52.486;4.650;2022-07-15T07:47:01;5.20;;;0.70;;
37851;SDS011;23691;52.486;4.650;2022-07-15T07:49:27;3.55;;;0.47;;
37851;SDS011;23691;52.486;4.650;2022-07-15T07:51:52;6.07;;;0.70;;
37851;SDS011;23691;52.486;4.650;2022-07-15T07:54:17;3.75;;;0.60;;
37851;SDS011;23691;52.486;4.650;2022-07-15T07:56:43;3.92;;;0.40;;
37851;SDS011;23691;52.486;4.650;2022-07-15T07:59:10;5.80;;;0.60;;
37851;SDS011;23691;52.486;4.650;2022-07-15T08:01:35;3.83;;;0.63;;
37851;SDS011;23691;52.486;4.650;2022-07-15T08:04:01;2.80;;;0.40;;
37851;SDS011;23691;52.486;4.650;2022-07-15T08:06:28;4.88;;;0.60;;
37851;SDS011;23691;52.486;4.650;2022-07-15T08:08:53;1.85;;;0.40;;
37851;SDS011;23691;52.486;4.650;2022-07-15T08:11:19;3.55;;;0.60;;
37851;SDS011;23691;52.486;4.650;2022-07-15T08:13:45;5.85;;;0.60;;
37851;SDS011;23691;52.486;4.650;2022-07-15T08:16:10;4.55;;;0.65;;
37851;SDS011;23691;52.486;4.650;2022-07-15T08:18:36;4.70;;;0.65;;
37851;SDS011;23691;52.486;4.650;2022-07-15T08:21:02;4.18;;;0.68;;
37851;SDS011;23691;52.486;4.650;2022-07-15T08:23:28;2.55;;;0.52;;
37851;SDS011;23691;52.486;4.650;2022-07-15T08:25:54;2.47;;;0.40;;
37851;SDS011;23691;52.486;4.650;2022-07-15T08:28:20;3.92;;;0.40;;
37851;SDS011;23691;52.486;4.650;2022-07-15T08:30:46;3.28;;;0.40;;
37851;SDS011;23691;52.486;4.650;2022-07-15T08:33:12;5.50;;;0.82;;
37851;SDS011;23691;52.486;4.650;2022-07-15T08:35:37;6.43;;;0.70;;
37851;SDS011;23691;52.486;4.650;2022-07-15T08:38:05;4.78;;;0.70;;
37851;SDS011;23691;52.486;4.650;2022-07-15T08:40:32;4.72;;;0.70;;
37851;SDS011;23691;52.486;4.650;2022-07-15T08:43:05;4.95;;;0.85;;
37851;SDS011;23691;52.486;4.650;2022-07-15T08:45:31;4.55;;;0.65;;
37851;SDS011;23691;52.486;4.650;2022-07-15T08:47:59;2.45;;;0.40;;
37851;SDS011;23691;52.486;4.650;2022-07-15T08:50:28;3.95;;;0.68;;
37851;SDS011;23691;52.486;4.650;2022-07-15T08:52:56;3.78;;;0.70;;
37851;SDS011;23691;52.486;4.650;2022-07-15T08:55:22;9.32;;;1.10;;
37851;SDS011;23691;52.486;4.650;2022-07-15T08:57:48;4.78;;;0.80;;
37851;SDS011;23691;52.486;4.650;2022-07-15T09:00:16;5.82;;;1.00;;
37851;SDS011;23691;52.486;4.650;2022-07-15T09:02:42;3.92;;;0.65;;
37851;SDS011;23691;52.486;4.650;2022-07-15T09:05:19;4.93;;;0.60;;
37851;SDS011;23691;52.486;4.650;2022-07-15T09:10:18;6.43;;;0.75;;
37851;SDS011;23691;52.486;4.650;2022-07-15T09:12:48;5.72;;;0.88;;
37851;SDS011;23691;52.486;4.650;2022-07-15T09:15:29;6.43;;;0.90;;
37851;SDS011;23691;52.486;4.650;2022-07-15T09:18:29;8.68;;;0.85;;
37851;SDS011;23691;52.486;4.650;2022-07-15T09:20:49;5.75;;;0.80;;
37851;SDS011;23691;52.486;4.650;2022-07-15T09:23:16;4.65;;;0.80;;
37851;SDS011;23691;52.486;4.650;2022-07-15T09:25:49;3.95;;;0.80;;
37851;SDS011;23691;52.486;4.650;2022-07-15T09:28:16;4.28;;;0.70;;
37851;SDS011;23691;52.486;4.650;2022-07-15T09:30:42;6.32;;;0.80;;
37851;SDS011;23691;52.486;4.650;2022-07-15T09:33:29;5.90;;;0.80;;
37851;SDS011;23691;52.486;4.650;2022-07-15T09:36:07;5.88;;;1.05;;
37851;SDS011;23691;52.486;4.650;2022-07-15T09:41:05;6.60;;;1.10;;
37851;SDS011;23691;52.486;4.650;2022-07-15T09:43:44;4.05;;;0.73;;
37851;SDS011;23691;52.486;4.650;2022-07-15T09:46:11;6.30;;;0.98;;
37851;SDS011;23691;52.486;4.650;2022-07-15T09:48:40;4.15;;;0.90;;
37851;SDS011;23691;52.486;4.650;2022-07-15T09:51:07;4.95;;;1.10;;
37851;SDS011;23691;52.486;4.650;2022-07-15T09:53:34;10.13;;;1.27;;
37851;SDS011;23691;52.486;4.650;2022-07-15T09:56:00;4.93;;;1.00;;
37851;SDS011;23691;52.486;4.650;2022-07-15T09:58:27;3.78;;;0.80;;
37851;SDS011;23691;52.486;4.650;2022-07-15T10:00:53;4.05;;;0.73;;
37851;SDS011;23691;52.486;4.650;2022-07-15T10:03:19;5.40;;;1.25;;
37851;SDS011;23691;52.486;4.650;2022-07-15T10:05:49;6.03;;;1.17;;
37851;SDS011;23691;52.486;4.650;2022-07-15T10:08:18;4.20;;;0.60;;
37851;SDS011;23691;52.486;4.650;2022-07-15T10:10:44;5.03;;;0.65;;
37851;SDS011;23691;52.486;4.650;2022-07-15T10:16:21;6.03;;;0.70;;
37851;SDS011;23691;52.486;4.650;2022-07-15T10:30:10;3.30;;;0.70;;
37851;SDS011;23691;52.486;4.650;2022-07-15T10:33:05;3.72;;;0.70;;
37851;SDS011;23691;52.486;4.650;2022-07-15T10:35:45;3.85;;;0.70;;
37851;SDS011;23691;52.486;4.650;2022-07-15T10:38:22;6.07;;;1.15;;
37851;SDS011;23691;52.486;4.650;2022-07-15T10:41:03;5.32;;;0.70;;
37851;SDS011;23691;52.486;4.650;2022-07-15T10:43:38;5.07;;;0.80;;
37851;SDS011;23691;52.486;4.650;2022-07-15T10:46:04;6.15;;;1.00;;
37851;SDS011;23691;52.486;4.650;2022-07-15T10:48:42;6.35;;;0.65;;
37851;SDS011;23691;52.486;4.650;2022-07-15T10:51:09;2.75;;;0.60;;
37851;SDS011;23691;52.486;4.650;2022-07-15T10:53:47;4.32;;;0.95;;
37851;SDS011;23691;52.486;4.650;2022-07-15T10:56:29;3.45;;;0.70;;
37851;SDS011;23691;52.486;4.650;2022-07-15T11:01:50;4.85;;;0.82;;
37851;SDS011;23691;52.486;4.650;2022-07-15T11:04:26;6.80;;;0.77;;
37851;SDS011;23691;52.486;4.650;2022-07-15T11:09:46;6.80;;;1.05;;
37851;SDS011;23691;52.486;4.650;2022-07-15T11:14:57;3.47;;;0.73;;
37851;SDS011;23691;52.486;4.650;2022-07-15T11:22:26;1.92;;;0.60;;
37851;SDS011;23691;52.486;4.650;2022-07-15T11:24:53;2.53;;;0.32;;
37851;SDS011;23691;52.486;4.650;2022-07-15T11:27:21;5.10;;;0.80;;
37851;SDS011;23691;52.486;4.650;2022-07-15T11:29:49;2.05;;;0.50;;
37851;SDS011;23691;52.486;4.650;2022-07-15T11:32:17;2.85;;;0.82;;
37851;SDS011;23691;52.486;4.650;2022-07-15T11:37:17;1.73;;;0.50;;
37851;SDS011;23691;52.486;4.650;2022-07-15T11:39:50;3.10;;;0.57;;
37851;SDS011;23691;52.486;4.650;2022-07-15T11:42:30;4.18;;;0.90;;
37851;SDS011;23691;52.486;4.650;2022-07-15T11:45:15;1.92;;;0.43;;
37851;SDS011;23691;52.486;4.650;2022-07-15T11:47:51;3.28;;;0.60;;
37851;SDS011;23691;52.486;4.650;2022-07-15T11:50:18;3.00;;;0.40;;
37851;SDS011;23691;52.486;4.650;2022-07-15T11:52:44;3.70;;;0.40;;
37851;SDS011;23691;52.486;4.650;2022-07-15T11:55:10;3.17;;;0.60;;
37851;SDS011;23691;52.486;4.650;2022-07-15T11:57:36;6.70;;;0.60;;
37851;SDS011;23691;52.486;4.650;2022-07-15T12:00:01;6.35;;;0.88;;
37851;SDS011;23691;52.486;4.650;2022-07-15T12:02:29;4.38;;;0.60;;
37851;SDS011;23691;52.486;4.650;2022-07-15T12:05:02;2.83;;;0.60;;
37851;SDS011;23691;52.486;4.650;2022-07-15T12:07:41;5.00;;;0.77;;
37851;SDS011;23691;52.486;4.650;2022-07-15T12:10:09;4.95;;;0.73;;
37851;SDS011;23691;52.486;4.650;2022-07-15T12:15:05;5.78;;;0.80;;
37851;SDS011;23691;52.486;4.650;2022-07-15T12:17:31;3.65;;;0.80;;
37851;SDS011;23691;52.486;4.650;2022-07-15T12:19:56;7.22;;;0.90;;
37851;SDS011;23691;52.486;4.650;2022-07-15T12:22:23;5.55;;;1.05;;
37851;SDS011;23691;52.486;4.650;2022-07-15T12:24:49;6.63;;;0.90;;
37851;SDS011;23691;52.486;4.650;2022-07-15T12:27:17;5.45;;;1.00;;
37851;SDS011;23691;52.486;4.650;2022-07-15T12:29:43;7.38;;;1.25;;
37851;SDS011;23691;52.486;4.650;2022-07-15T12:32:10;10.77;;;1.27;;
37851;SDS011;23691;52.486;4.650;2022-07-15T12:39:52;7.03;;;1.52;;
37851;SDS011;23691;52.486;4.650;2022-07-15T12:42:21;6.00;;;1.42;;
37851;SDS011;23691;52.486;4.650;2022-07-15T12:44:58;7.45;;;1.20;;
37851;SDS011;23691;52.486;4.650;2022-07-15T12:47:30;7.75;;;1.48;;
37851;SDS011;23691;52.486;4.650;2022-07-15T12:49:56;6.85;;;1.30;;
37851;SDS011;23691;52.486;4.650;2022-07-15T12:55:00;8.18;;;1.20;;
37851;SDS011;23691;52.486;4.650;2022-07-15T12:57:37;8.95;;;1.33;;
37851;SDS011;23691;52.486;4.650;2022-07-15T13:00:04;7.70;;;1.30;;
37851;SDS011;23691;52.486;4.650;2022-07-15T13:02:54;6.78;;;1.10;;
37851;SDS011;23691;52.486;4.650;2022-07-15T13:05:49;6.25;;;1.17;;
37851;SDS011;23691;52.486;4.650;2022-07-15T13:08:21;7.55;;;1.10;;
37851;SDS011;23691;52.486;4.650;2022-07-15T13:10:49;6.18;;;1.10;;
37851;SDS011;23691;52.486;4.650;2022-07-15T13:13:17;8.80;;;1.30;;
37851;SDS011;23691;52.486;4.650;2022-07-15T13:18:12;7.55;;;1.40;;
37851;SDS011;23691;52.486;4.650;2022-07-15T13:20:38;6.47;;;1.23;;
37851;SDS011;23691;52.486;4.650;2022-07-15T13:23:04;8.48;;;1.60;;
37851;SDS011;23691;52.486;4.650;2022-07-15T13:25:31;9.85;;;1.38;;
37851;SDS011;23691;52.486;4.650;2022-07-15T13:27:57;8.37;;;1.50;;
37851;SDS011;23691;52.486;4.650;2022-07-15T13:30:24;6.57;;;1.47;;
37851;SDS011;23691;52.486;4.650;2022-07-15T13:32:49;7.10;;;1.50;;
37851;SDS011;23691;52.486;4.650;2022-07-15T13:35:15;6.80;;;1.40;;
37851;SDS011;23691;52.486;4.650;2022-07-15T13:37:40;8.35;;;1.52;;
37851;SDS011;23691;52.486;4.650;2022-07-15T13:40:07;8.82;;;1.50;;
37851;SDS011;23691;52.486;4.650;2022-07-15T13:42:34;8.07;;;1.23;;
37851;SDS011;23691;52.486;4.650;2022-07-15T13:45:00;6.75;;;1.40;;
37851;SDS011;23691;52.486;4.650;2022-07-15T13:47:26;6.70;;;1.10;;
37851;SDS011;23691;52.486;4.650;2022-07-15T13:49:51;3.83;;;1.15;;
37851;SDS011;23691;52.486;4.650;2022-07-15T13:52:45;8.10;;;1.63;;
37851;SDS011;23691;52.486;4.650;2022-07-15T13:55:13;5.70;;;1.20;;
37851;SDS011;23691;52.486;4.650;2022-07-15T13:57:40;7.20;;;1.35;;
37851;SDS011;23691;52.486;4.650;2022-07-15T14:00:07;9.80;;;1.67;;
37851;SDS011;23691;52.486;4.650;2022-07-15T14:02:36;8.98;;;1.30;;
37851;SDS011;23691;52.486;4.650;2022-07-15T14:05:02;6.40;;;1.25;;
37851;SDS011;23691;52.486;4.650;2022-07-15T14:07:28;8.65;;;1.23;;
37851;SDS011;23691;52.486;4.650;2022-07-15T14:09:54;5.00;;;1.13;;
37851;SDS011;23691;52.486;4.650;2022-07-15T14:12:19;7.60;;;1.30;;
37851;SDS011;23691;52.486;4.650;2022-07-15T14:14:44;8.10;;;1.52;;
37851;SDS011;23691;52.486;4.650;2022-07-15T14:17:10;8.73;;;1.40;;
37851;SDS011;23691;52.486;4.650;2022-07-15T14:19:36;8.23;;;1.40;;
37851;SDS011;23691;52.486;4.650;2022-07-15T14:22:01;7.70;;;1.38;;
37851;SDS011;23691;52.486;4.650;2022-07-15T14:24:27;6.75;;;1.45;;
37851;SDS011;23691;52.486;4.650;2022-07-15T14:26:52;7.43;;;1.45;;
37851;SDS011;23691;52.486;4.650;2022-07-15T14:29:17;10.05;;;1.50;;
37851;SDS011;23691;52.486;4.650;2022-07-15T14:31:44;9.68;;;1.80;;
37851;SDS011;23691;52.486;4.650;2022-07-15T14:34:09;8.38;;;1.92;;
37851;SDS011;23691;52.486;4.650;2022-07-15T14:36:35;6.90;;;1.35;;
37851;SDS011;23691;52.486;4.650;2022-07-15T14:39:00;10.80;;;1.95;;
37851;SDS011;23691;52.486;4.650;2022-07-15T14:41:26;7.60;;;1.90;;
37851;SDS011;23691;52.486;4.650;2022-07-15T14:43:52;9.85;;;1.70;;
37851;SDS011;23691;52.486;4.650;2022-07-15T14:46:17;6.95;;;1.60;;
37851;SDS011;23691;52.486;4.650;2022-07-15T14:48:43;7.70;;;1.85;;
37851;SDS011;23691;52.486;4.650;2022-07-15T14:51:08;12.60;;;1.95;;
37851;SDS011;23691;52.486;4.650;2022-07-15T14:53:33;18.27;;;3.47;;
37851;SDS011;23691;52.486;4.650;2022-07-15T14:55:59;11.43;;;2.08;;
37851;SDS011;23691;52.486;4.650;2022-07-15T14:58:24;8.05;;;1.70;;
37851;SDS011;23691;52.486;4.650;2022-07-15T15:00:50;7.85;;;1.60;;
37851;SDS011;23691;52.486;4.650;2022-07-15T15:03:16;9.55;;;1.70;;
37851;SDS011;23691;52.486;4.650;2022-07-15T15:05:42;7.53;;;1.70;;
37851;SDS011;23691;52.486;4.650;2022-07-15T15:08:08;10.68;;;1.90;;
37851;SDS011;23691;52.486;4.650;2022-07-15T15:10:34;8.90;;;1.67;;
37851;SDS011;23691;52.486;4.650;2022-07-15T15:12:59;9.82;;;1.65;;
37851;SDS011;23691;52.486;4.650;2022-07-15T15:15:25;8.48;;;1.40;;
37851;SDS011;23691;52.486;4.650;2022-07-15T15:17:50;8.23;;;1.60;;
37851;SDS011;23691;52.486;4.650;2022-07-15T15:20:16;9.23;;;1.60;;
37851;SDS011;23691;52.486;4.650;2022-07-15T15:22:42;7.72;;;1.40;;
37851;SDS011;23691;52.486;4.650;2022-07-15T15:25:08;7.25;;;1.10;;
37851;SDS011;23691;52.486;4.650;2022-07-15T15:27:33;7.72;;;1.08;;
37851;SDS011;23691;52.486;4.650;2022-07-15T15:30:00;3.45;;;0.90;;
37851;SDS011;23691;52.486;4.650;2022-07-15T15:32:25;5.38;;;0.95;;
37851;SDS011;23691;52.486;4.650;2022-07-15T15:34:51;8.68;;;1.00;;